首页
METAR-TAF:

METAR-TAF

机场 :

胡德堡 / 基林, 得克萨斯州, 美国

纬度: 31-06N, 经度: 097-20W, 海拔: 283米

当前天气观测

该预报发布于18分钟前的20:58 UTC
风速3节,风向南转南东
温度 12°C
湿度 47%
气压 1030 hPa
能見度: 14.5公里
天空无云

METAR: KHLR 112058Z AUTO 15003KT 9SM CLR 12/01 A3042 RMK AO2 SLPNO T01170011

时间: 14:16 (21:16 UTC)


TAF: 丢失

超过4000个机场的气象观测和天气预报(METAR&TAF报告)。

可查询的气象台以黄色和红色小点在地图上表示。

将鼠标移到小点上方,可查看气象台名称。

然后点击查看天气观测和预报。

如需切换地图:点击带黑十字的绿色按钮放大地图;点击带横线的绿色按钮缩小地图;或者点击绿色箭头查看邻近地区的地图。


METAR-TAF: